createdAt,value
2023-10-18T00:00:11.388Z,11.10
2023-10-18T00:01:11.402Z,10.50
2023-10-18T00:02:11.351Z,11.40
2023-10-18T00:03:11.380Z,12.90
2023-10-18T00:04:11.484Z,10.90
2023-10-18T00:05:11.295Z,9.80
2023-10-18T00:06:11.286Z,10.40
2023-10-18T00:07:11.329Z,9.90
2023-10-18T00:08:11.262Z,9.40
2023-10-18T00:09:11.241Z,9.10
2023-10-18T00:10:11.267Z,9.30
2023-10-18T00:11:11.221Z,10.30
2023-10-18T00:12:11.243Z,10.20
2023-10-18T00:13:11.234Z,9.70
2023-10-18T00:14:11.183Z,11.10
2023-10-18T00:15:11.175Z,10.90
2023-10-18T00:16:11.209Z,10.80
2023-10-18T00:17:11.153Z,10.40
2023-10-18T00:18:11.254Z,9.50
2023-10-18T00:19:11.175Z,11.70
2023-10-18T00:20:11.112Z,11.70
2023-10-18T00:21:11.098Z,12.90
2023-10-18T00:22:11.112Z,11.60
2023-10-18T00:23:11.064Z,10.60
2023-10-18T00:24:11.048Z,10.10
2023-10-18T00:25:11.062Z,10.80
2023-10-18T00:26:11.031Z,12.20
2023-10-18T00:27:11.023Z,11.20
2023-10-18T00:28:11.083Z,11.10
2023-10-18T00:29:10.984Z,9.20
2023-10-18T00:30:10.968Z,10.30
2023-10-18T00:31:11.046Z,10.30
2023-10-18T00:32:10.967Z,10.80
2023-10-18T00:33:10.940Z,11.80
2023-10-18T00:34:10.960Z,10.80
2023-10-18T00:35:10.899Z,10.40
2023-10-18T00:36:10.908Z,11.60
2023-10-18T00:37:10.914Z,10.50
2023-10-18T00:38:10.863Z,11.60
2023-10-18T00:39:10.850Z,11.30
2023-10-18T00:40:10.864Z,10.00
2023-10-18T00:41:10.865Z,12.50
2023-10-18T00:42:10.811Z,11.40
2023-10-18T00:43:10.853Z,10.30
2023-10-18T00:44:10.817Z,10.90
2023-10-18T00:45:10.782Z,11.20
2023-10-18T00:46:10.897Z,9.90
2023-10-18T00:47:10.852Z,12.80
2023-10-18T00:48:10.746Z,11.00
2023-10-18T00:49:10.751Z,10.50
2023-10-18T00:50:10.725Z,10.00
2023-10-18T00:51:10.708Z,10.80
2023-10-18T00:52:10.761Z,11.90
2023-10-18T00:53:10.670Z,11.00
2023-10-18T00:54:10.667Z,10.40
2023-10-18T00:55:10.686Z,11.10
2023-10-18T00:56:10.634Z,9.40
2023-10-18T00:57:10.625Z,9.40
2023-10-18T00:58:10.648Z,8.80
2023-10-18T00:59:10.592Z,10.60
2023-10-18T01:00:10.621Z,10.80
2023-10-18T01:01:10.954Z,8.80
2023-10-18T01:02:10.629Z,9.00
2023-10-18T01:03:10.717Z,9.00
2023-10-18T01:04:10.588Z,12.80
2023-10-18T01:05:10.534Z,9.40
2023-10-18T01:06:10.606Z,9.80
2023-10-18T01:07:10.614Z,8.90
2023-10-18T01:08:10.478Z,8.70
2023-10-18T01:09:10.464Z,9.20
2023-10-18T01:10:10.507Z,8.80
2023-10-18T01:11:10.440Z,8.90
2023-10-18T01:12:10.421Z,10.70
2023-10-18T01:13:10.550Z,9.00
2023-10-18T01:14:10.412Z,9.90
2023-10-18T01:15:10.406Z,8.30
2023-10-18T01:16:10.538Z,8.10
2023-10-18T01:17:10.384Z,8.40
2023-10-18T01:18:10.344Z,9.20
2023-10-18T01:19:10.607Z,9.00
2023-10-18T01:20:11.018Z,9.40
2023-10-18T01:21:10.313Z,8.70
2023-10-18T01:22:10.334Z,7.60
2023-10-18T01:23:10.285Z,7.90
2023-10-18T01:24:10.281Z,8.90
2023-10-18T01:25:10.305Z,9.20
2023-10-18T01:26:10.241Z,8.30
2023-10-18T01:27:10.234Z,9.80
2023-10-18T01:28:10.264Z,8.60
2023-10-18T01:29:10.222Z,9.30
2023-10-18T01:30:10.195Z,7.40
2023-10-18T01:31:10.388Z,9.10
2023-10-18T01:32:10.215Z,10.30
2023-10-18T01:33:10.220Z,7.40
2023-10-18T01:34:10.160Z,8.70
2023-10-18T01:35:10.127Z,8.70
2023-10-18T01:36:10.111Z,7.70
2023-10-18T01:37:10.141Z,8.30
2023-10-18T01:38:10.098Z,7.60
2023-10-18T01:39:10.078Z,7.70
2023-10-18T01:40:10.078Z,7.80
2023-10-18T01:41:10.068Z,7.30
2023-10-18T01:42:10.055Z,7.70
2023-10-18T01:43:10.088Z,7.10
2023-10-18T01:44:10.013Z,7.90
2023-10-18T01:45:09.996Z,7.40
2023-10-18T01:46:10.103Z,8.10
2023-10-18T01:47:10.021Z,8.20
2023-10-18T01:48:10.019Z,7.10
2023-10-18T01:49:09.963Z,8.60
2023-10-18T01:50:10.021Z,8.10
2023-10-18T01:51:09.919Z,8.00
2023-10-18T01:52:10.009Z,7.10
2023-10-18T01:53:09.890Z,7.70
2023-10-18T01:54:09.879Z,6.70
2023-10-18T01:55:09.882Z,7.70
2023-10-18T01:56:09.850Z,7.40
2023-10-18T01:57:09.849Z,8.30
2023-10-18T01:58:09.832Z,8.80
2023-10-18T01:59:09.814Z,8.00
2023-10-18T02:00:09.803Z,6.60
2023-10-18T02:01:09.886Z,7.80
2023-10-18T02:02:09.825Z,7.60
2023-10-18T02:03:09.900Z,8.60
2023-10-18T02:04:09.882Z,6.70
2023-10-18T02:05:09.874Z,7.00
2023-10-18T02:06:09.746Z,8.20
2023-10-18T02:07:09.749Z,6.80
2023-10-18T02:08:09.712Z,8.80
2023-10-18T02:09:09.686Z,7.80
2023-10-18T02:10:09.695Z,9.30
2023-10-18T02:11:09.678Z,7.80
2023-10-18T02:12:09.722Z,8.50
2023-10-18T02:13:09.712Z,7.00
2023-10-18T02:14:09.614Z,7.90
2023-10-18T02:15:09.608Z,7.60
2023-10-18T02:16:09.657Z,7.30
2023-10-18T02:17:09.585Z,7.30
2023-10-18T02:18:09.600Z,6.60
2023-10-18T02:19:09.570Z,7.90
2023-10-18T02:20:09.585Z,7.70
2023-10-18T02:21:09.553Z,8.40
2023-10-18T02:22:09.525Z,7.10
2023-10-18T02:23:09.497Z,9.00
2023-10-18T02:24:09.480Z,7.50
2023-10-18T02:25:09.510Z,8.50
2023-10-18T02:26:09.479Z,8.10
2023-10-18T02:27:09.462Z,9.60
2023-10-18T02:28:09.461Z,8.20
2023-10-18T02:29:09.419Z,8.80
2023-10-18T02:30:09.425Z,8.40
2023-10-18T02:31:09.428Z,9.30
2023-10-18T02:32:09.399Z,10.50
2023-10-18T02:33:09.384Z,8.20
2023-10-18T02:34:18.897Z,9.60
2023-10-18T02:35:10.368Z,7.60
2023-10-18T02:36:09.355Z,9.40
2023-10-18T02:37:09.342Z,7.90
2023-10-18T02:38:09.315Z,7.30
2023-10-18T02:39:09.303Z,8.80
2023-10-18T02:40:09.752Z,8.40
2023-10-18T02:41:09.265Z,8.90
2023-10-18T02:42:09.249Z,7.80
2023-10-18T02:43:09.323Z,8.10
2023-10-18T02:44:09.256Z,8.70
2023-10-18T02:45:09.211Z,8.90
2023-10-18T02:46:09.283Z,7.20
2023-10-18T02:47:09.206Z,7.10
2023-10-18T02:48:09.201Z,8.20
2023-10-18T02:49:09.222Z,8.80
2023-10-18T02:50:09.141Z,9.00
2023-10-18T02:51:09.129Z,8.90
2023-10-18T02:52:09.190Z,8.60
2023-10-18T02:53:09.110Z,7.80
2023-10-18T02:54:09.168Z,7.50
2023-10-18T02:55:09.133Z,7.90
2023-10-18T02:56:09.065Z,8.60
2023-10-18T02:57:09.044Z,7.30
2023-10-18T02:58:09.153Z,8.70
2023-10-18T02:59:10.011Z,9.30
2023-10-18T03:00:09.012Z,10.50
2023-10-18T03:01:09.067Z,8.90
2023-10-18T03:02:08.975Z,8.50
2023-10-18T03:03:09.007Z,7.70
2023-10-18T03:04:09.018Z,8.10
2023-10-18T03:05:08.955Z,8.40
2023-10-18T03:06:08.941Z,7.50
2023-10-18T03:07:08.964Z,9.60
2023-10-18T03:08:08.940Z,8.60
2023-10-18T03:09:08.887Z,7.00
2023-10-18T03:10:08.893Z,8.20
2023-10-18T03:11:08.861Z,7.40
2023-10-18T03:12:11.783Z,8.40
2023-10-18T03:13:08.896Z,9.10
2023-10-18T03:14:08.829Z,8.20
2023-10-18T03:15:08.808Z,7.90
2023-10-18T03:16:08.881Z,7.00
2023-10-18T03:17:08.905Z,9.50
2023-10-18T03:18:08.796Z,8.40
2023-10-18T03:19:08.841Z,8.10
2023-10-18T03:20:08.741Z,10.40
2023-10-18T03:21:08.734Z,7.30
2023-10-18T03:22:08.790Z,7.60
2023-10-18T03:23:08.710Z,7.80
2023-10-18T03:24:08.717Z,7.80
2023-10-18T03:25:08.709Z,8.10
2023-10-18T03:26:08.667Z,8.30
2023-10-18T03:27:08.674Z,8.50
2023-10-18T03:28:08.684Z,8.70
2023-10-18T03:29:08.630Z,8.60
2023-10-18T03:30:08.629Z,8.10
2023-10-18T03:31:08.655Z,8.60
2023-10-18T03:32:08.617Z,9.70
2023-10-18T03:33:08.629Z,9.20
2023-10-18T03:34:08.627Z,8.40
2023-10-18T03:35:08.548Z,10.10
2023-10-18T03:36:19.945Z,7.60
2023-10-18T03:37:08.596Z,11.10
2023-10-18T03:38:08.511Z,9.50
2023-10-18T03:39:08.500Z,8.70
2023-10-18T03:40:08.561Z,10.70
2023-10-18T03:41:08.490Z,8.20
2023-10-18T03:42:08.457Z,10.20
2023-10-18T03:43:08.477Z,8.50
2023-10-18T03:44:08.506Z,9.60
2023-10-18T03:45:08.424Z,11.00
2023-10-18T03:46:08.509Z,9.40
2023-10-18T03:47:08.405Z,9.60
2023-10-18T03:48:08.378Z,12.50
2023-10-18T03:49:08.399Z,11.70
2023-10-18T03:50:08.360Z,11.30
2023-10-18T03:51:08.361Z,11.10
2023-10-18T03:52:08.369Z,11.30
2023-10-18T03:53:08.326Z,10.20
2023-10-18T03:54:08.301Z,9.90
2023-10-18T03:55:08.397Z,10.00
2023-10-18T03:56:08.312Z,13.00
2023-10-18T03:57:08.284Z,12.20
2023-10-18T03:58:08.358Z,12.50
2023-10-18T03:59:08.233Z,13.30
2023-10-18T04:00:08.248Z,12.10
2023-10-18T04:01:08.382Z,12.10
2023-10-18T04:02:08.243Z,11.50
2023-10-18T04:03:11.928Z,13.30
2023-10-18T04:04:08.222Z,12.00
2023-10-18T04:05:08.168Z,12.30
2023-10-18T04:06:08.136Z,12.50
2023-10-18T04:07:08.224Z,13.20
2023-10-18T04:08:08.114Z,13.50
2023-10-18T04:09:08.112Z,11.80
2023-10-18T04:10:08.137Z,14.40
2023-10-18T04:11:08.072Z,15.00
2023-10-18T04:12:08.079Z,15.30
2023-10-18T04:13:08.086Z,11.40
2023-10-18T04:14:08.050Z,14.20
2023-10-18T04:15:08.036Z,14.10
2023-10-18T04:16:08.041Z,11.90
2023-10-18T04:17:07.997Z,12.20
2023-10-18T04:18:08.005Z,13.40
2023-10-18T04:19:08.095Z,12.80
2023-10-18T04:20:07.948Z,12.10
2023-10-18T04:21:07.940Z,12.30
2023-10-18T04:22:08.006Z,13.30
2023-10-18T04:23:07.915Z,14.60
2023-10-18T04:24:07.945Z,13.70
2023-10-18T04:25:07.945Z,13.00
2023-10-18T04:26:07.883Z,14.20
2023-10-18T04:27:07.860Z,15.00
2023-10-18T04:28:07.970Z,13.80
2023-10-18T04:29:07.857Z,14.00
2023-10-18T04:30:07.825Z,14.00
2023-10-18T04:31:07.952Z,14.70
2023-10-18T04:32:07.869Z,14.60
2023-10-18T04:33:07.996Z,13.40
2023-10-18T04:34:07.829Z,14.50
2023-10-18T04:35:07.770Z,14.80
2023-10-18T04:36:07.743Z,16.60
2023-10-18T04:37:07.778Z,14.80
2023-10-18T04:38:07.730Z,14.90
2023-10-18T04:39:07.702Z,18.10
2023-10-18T04:40:07.732Z,15.40
2023-10-18T04:41:07.690Z,15.10
2023-10-18T04:42:07.671Z,17.20
2023-10-18T04:43:07.732Z,14.40
2023-10-18T04:44:07.659Z,15.00
2023-10-18T04:45:07.626Z,15.60
2023-10-18T04:46:07.737Z,14.80
2023-10-18T04:47:07.784Z,15.30
2023-10-18T04:48:07.830Z,14.90
2023-10-18T04:49:07.619Z,14.80
2023-10-18T04:50:07.559Z,15.00
2023-10-18T04:51:07.602Z,15.70
2023-10-18T04:52:07.587Z,16.70
2023-10-18T04:53:07.537Z,17.90
2023-10-18T04:54:08.373Z,17.40
2023-10-18T04:55:07.520Z,14.60
2023-10-18T04:56:07.476Z,16.80
2023-10-18T04:57:07.477Z,17.20
2023-10-18T04:58:07.477Z,16.70
2023-10-18T04:59:07.471Z,18.10
2023-10-18T05:00:07.449Z,17.70
2023-10-18T05:01:08.006Z,17.20
2023-10-18T05:02:07.470Z,15.20
2023-10-18T05:03:07.412Z,17.30
2023-10-18T05:04:07.403Z,19.00
2023-10-18T05:05:07.383Z,21.30
2023-10-18T05:06:07.358Z,19.50
2023-10-18T05:07:07.365Z,17.00
2023-10-18T05:08:07.321Z,17.30
2023-10-18T05:09:07.313Z,16.70
2023-10-18T05:10:07.389Z,16.10
2023-10-18T05:11:07.291Z,16.40
2023-10-18T05:12:07.284Z,17.80
2023-10-18T05:13:07.290Z,18.50
2023-10-18T05:14:07.244Z,18.70
2023-10-18T05:15:07.230Z,14.90
2023-10-18T05:16:07.317Z,17.50
2023-10-18T05:17:07.315Z,14.40
2023-10-18T05:18:07.433Z,14.80
2023-10-18T05:19:07.261Z,15.10
2023-10-18T05:20:07.165Z,14.40
2023-10-18T05:21:07.151Z,15.90
2023-10-18T05:22:07.215Z,17.80
2023-10-18T05:23:07.144Z,15.90
2023-10-18T05:24:07.127Z,16.10
2023-10-18T05:25:07.150Z,18.70
2023-10-18T05:26:07.097Z,18.50
2023-10-18T05:27:07.100Z,15.40
2023-10-18T05:28:07.136Z,15.70
2023-10-18T05:29:07.049Z,18.50
2023-10-18T05:30:07.044Z,15.70
2023-10-18T05:31:07.157Z,18.10
2023-10-18T05:32:07.143Z,18.50
2023-10-18T05:33:07.011Z,15.30
2023-10-18T05:34:07.011Z,17.20
2023-10-18T05:35:13.355Z,17.20
2023-10-18T05:36:06.991Z,16.70
2023-10-18T05:37:06.958Z,17.00
2023-10-18T05:38:07.324Z,15.10
2023-10-18T05:39:07.102Z,17.90
2023-10-18T05:40:06.947Z,16.20
2023-10-18T05:41:06.912Z,16.90
2023-10-18T05:42:06.896Z,16.80
2023-10-18T05:43:06.983Z,16.50
2023-10-18T05:44:06.887Z,17.00
2023-10-18T05:45:06.864Z,17.70
2023-10-18T05:46:06.913Z,17.30
2023-10-18T05:47:06.830Z,18.50
2023-10-18T05:48:06.857Z,16.30
2023-10-18T05:49:06.873Z,14.80
2023-10-18T05:50:06.798Z,15.90
2023-10-18T05:51:06.811Z,16.00
2023-10-18T05:52:06.801Z,15.70
2023-10-18T05:53:06.752Z,16.30
2023-10-18T05:54:06.875Z,16.70
2023-10-18T05:55:06.752Z,16.20
2023-10-18T05:56:06.733Z,15.60
2023-10-18T05:57:06.712Z,16.00
2023-10-18T05:58:06.735Z,16.30
2023-10-18T05:59:06.674Z,17.20
2023-10-18T06:00:06.665Z,15.70
2023-10-18T06:01:06.727Z,15.70
2023-10-18T06:02:06.782Z,17.30
2023-10-18T06:03:06.721Z,18.20
2023-10-18T06:04:06.785Z,16.40
2023-10-18T06:05:06.615Z,16.10
2023-10-18T06:06:06.602Z,15.80
2023-10-18T06:07:06.591Z,14.40
2023-10-18T06:08:06.555Z,16.90
2023-10-18T06:09:06.546Z,16.80
2023-10-18T06:10:06.580Z,15.80
2023-10-18T06:11:06.544Z,15.20
2023-10-18T06:12:06.511Z,16.60
2023-10-18T06:13:06.569Z,15.40
2023-10-18T06:14:06.493Z,16.10
2023-10-18T06:15:06.469Z,14.20
2023-10-18T06:16:06.574Z,15.50
2023-10-18T06:17:06.487Z,15.80
2023-10-18T06:18:06.443Z,17.00
2023-10-18T06:19:06.437Z,14.90
2023-10-18T06:20:06.432Z,17.40
2023-10-18T06:21:06.417Z,17.30
2023-10-18T06:22:06.452Z,16.00
2023-10-18T06:23:06.368Z,15.10
2023-10-18T06:24:06.348Z,14.60
2023-10-18T06:25:06.369Z,14.70
2023-10-18T06:26:06.341Z,13.20
2023-10-18T06:27:06.307Z,15.70
2023-10-18T06:28:06.334Z,15.60
2023-10-18T06:29:06.286Z,14.20
2023-10-18T06:30:06.283Z,14.90
2023-10-18T06:31:06.350Z,13.00
2023-10-18T06:32:06.307Z,13.50
2023-10-18T06:33:06.245Z,16.00
2023-10-18T06:34:06.257Z,14.60
2023-10-18T06:35:06.221Z,17.20
2023-10-18T06:36:06.311Z,16.60
2023-10-18T06:37:06.260Z,14.70
2023-10-18T06:38:06.175Z,15.00
2023-10-18T06:39:06.151Z,15.60
2023-10-18T06:40:06.195Z,15.20
2023-10-18T06:41:07.424Z,16.30
2023-10-18T06:42:06.143Z,14.60
2023-10-18T06:43:06.125Z,15.00
2023-10-18T06:44:06.105Z,15.00
2023-10-18T06:45:06.074Z,14.80
2023-10-18T06:46:06.289Z,14.40
2023-10-18T06:47:06.072Z,16.50
2023-10-18T06:48:06.097Z,15.80
2023-10-18T06:49:11.981Z,13.90
2023-10-18T06:50:17.836Z,14.30
2023-10-18T06:51:06.026Z,14.30
2023-10-18T06:52:06.133Z,13.10
2023-10-18T06:53:06.082Z,12.30
2023-10-18T06:54:05.998Z,12.90
2023-10-18T06:55:05.973Z,11.20
2023-10-18T06:56:05.945Z,10.80
2023-10-18T06:57:05.913Z,10.50
2023-10-18T06:58:05.952Z,12.90
2023-10-18T06:59:05.895Z,11.30
2023-10-18T07:00:05.883Z,12.80
2023-10-18T07:01:05.977Z,11.70
2023-10-18T07:02:05.960Z,12.40
2023-10-18T07:03:05.928Z,11.60
2023-10-18T07:04:05.951Z,12.00
2023-10-18T07:05:05.814Z,12.00
2023-10-18T07:06:05.953Z,11.70
2023-10-18T07:07:05.793Z,11.90
2023-10-18T07:08:05.803Z,11.10
2023-10-18T07:09:05.757Z,11.20
2023-10-18T07:10:05.902Z,12.80
2023-10-18T07:11:19.578Z,12.00
2023-10-18T07:12:05.748Z,11.20
2023-10-18T07:13:05.744Z,16.30
2023-10-18T07:14:05.755Z,10.70
2023-10-18T07:15:05.676Z,10.70
2023-10-18T07:16:05.718Z,11.00
2023-10-18T07:17:05.786Z,10.70
2023-10-18T07:18:05.670Z,8.90
2023-10-18T07:19:05.696Z,7.90
2023-10-18T07:20:05.610Z,8.50
2023-10-18T07:21:05.600Z,9.50
2023-10-18T07:22:05.641Z,9.40
2023-10-18T07:23:05.575Z,8.90
2023-10-18T07:24:05.589Z,9.40
2023-10-18T07:25:05.562Z,7.90
2023-10-18T07:26:09.115Z,10.70
2023-10-18T07:27:05.691Z,8.70
2023-10-18T07:28:05.541Z,9.90
2023-10-18T07:29:05.498Z,9.10
2023-10-18T07:30:05.484Z,9.00
2023-10-18T07:31:05.554Z,8.00
2023-10-18T07:32:05.520Z,9.60
2023-10-18T07:33:05.468Z,8.90
2023-10-18T07:34:05.459Z,10.20
2023-10-18T07:35:05.412Z,8.80
2023-10-18T07:36:05.411Z,8.80
2023-10-18T07:37:05.417Z,8.10
2023-10-18T07:38:05.373Z,8.30
2023-10-18T07:39:05.362Z,8.80
2023-10-18T07:40:05.390Z,8.00
2023-10-18T07:41:05.350Z,7.20
2023-10-18T07:42:05.321Z,7.20
2023-10-18T07:43:05.364Z,8.40
2023-10-18T07:44:05.297Z,6.60
2023-10-18T07:45:05.281Z,6.70
2023-10-18T07:46:07.229Z,6.70
2023-10-18T07:47:05.259Z,6.50
2023-10-18T07:48:05.270Z,7.50
2023-10-18T07:49:05.468Z,7.20
2023-10-18T07:50:05.232Z,6.00
2023-10-18T07:51:05.227Z,6.50
2023-10-18T07:52:05.198Z,5.80
2023-10-18T07:53:05.176Z,5.70
2023-10-18T07:54:05.165Z,6.60
2023-10-18T07:55:05.223Z,7.00
2023-10-18T07:56:05.169Z,6.30
2023-10-18T07:57:06.335Z,6.80
2023-10-18T07:58:05.198Z,5.90
2023-10-18T07:59:05.101Z,6.90
2023-10-18T08:00:05.101Z,6.40
2023-10-18T08:01:05.278Z,6.20
2023-10-18T08:02:05.175Z,7.20
2023-10-18T08:03:05.189Z,6.70
2023-10-18T08:04:05.276Z,6.20
2023-10-18T08:05:05.270Z,5.40
2023-10-18T08:06:05.048Z,5.80
2023-10-18T08:07:05.085Z,5.80
2023-10-18T08:08:04.972Z,5.70
2023-10-18T08:09:04.957Z,5.20
2023-10-18T08:10:05.023Z,5.70
2023-10-18T08:11:04.935Z,7.20
2023-10-18T08:12:04.948Z,6.60
2023-10-18T08:13:05.199Z,5.70
2023-10-18T08:14:04.912Z,5.90
2023-10-18T08:15:04.896Z,5.80
2023-10-18T08:16:04.909Z,6.50
2023-10-18T08:17:04.889Z,6.40
2023-10-18T08:18:04.889Z,5.60
2023-10-18T08:19:04.888Z,5.30
2023-10-18T08:20:04.817Z,6.20
2023-10-18T08:21:04.805Z,6.50
2023-10-18T08:22:04.821Z,5.60
2023-10-18T08:23:04.772Z,6.60
2023-10-18T08:24:04.785Z,6.60
2023-10-18T08:25:04.788Z,5.30
2023-10-18T08:26:04.898Z,6.20
2023-10-18T08:27:04.719Z,4.80
2023-10-18T08:28:04.745Z,5.20
2023-10-18T08:29:04.735Z,5.50
2023-10-18T08:30:04.685Z,5.60
2023-10-18T08:31:04.759Z,5.30
2023-10-18T08:32:04.737Z,6.20
2023-10-18T08:33:04.665Z,6.50
2023-10-18T08:34:04.705Z,6.60
2023-10-18T08:35:04.622Z,6.40
2023-10-18T08:36:04.620Z,6.50
2023-10-18T08:37:04.659Z,6.80
2023-10-18T08:38:04.596Z,6.20
2023-10-18T08:39:04.589Z,6.20
2023-10-18T08:40:04.569Z,5.50
2023-10-18T08:41:04.546Z,5.90
2023-10-18T08:42:04.525Z,7.30
2023-10-18T08:43:04.574Z,5.80
2023-10-18T08:44:04.541Z,5.30
2023-10-18T08:45:04.483Z,6.70
2023-10-18T08:46:04.516Z,6.00
2023-10-18T08:47:04.516Z,7.50
2023-10-18T08:48:04.505Z,6.20
2023-10-18T08:49:04.502Z,7.40
2023-10-18T08:50:04.417Z,5.80
2023-10-18T08:51:04.405Z,4.80
2023-10-18T08:52:04.422Z,5.50
2023-10-18T08:53:04.399Z,4.80
2023-10-18T08:54:04.369Z,4.80
2023-10-18T08:55:04.398Z,5.10
2023-10-18T08:56:04.336Z,5.70
2023-10-18T08:57:04.347Z,6.80
2023-10-18T08:58:04.336Z,4.70
2023-10-18T08:59:05.705Z,5.60
2023-10-18T09:00:04.363Z,4.60
2023-10-18T09:01:04.451Z,4.50
2023-10-18T09:02:04.328Z,4.80
2023-10-18T09:03:04.368Z,5.30
2023-10-18T09:04:04.356Z,5.00
2023-10-18T09:05:04.220Z,5.30
2023-10-18T09:06:04.269Z,5.20
2023-10-18T09:07:04.247Z,5.00
2023-10-18T09:08:04.208Z,4.90
2023-10-18T09:09:04.170Z,4.40
2023-10-18T09:10:04.182Z,5.60
2023-10-18T09:11:04.166Z,5.60
2023-10-18T09:12:04.128Z,4.40
2023-10-18T09:13:04.216Z,4.40
2023-10-18T09:14:04.211Z,4.40
2023-10-18T09:15:04.096Z,4.80
2023-10-18T09:16:04.130Z,4.70
2023-10-18T09:17:04.127Z,5.30
2023-10-18T09:18:04.532Z,5.20
2023-10-18T09:19:04.052Z,4.80
2023-10-18T09:20:04.024Z,4.90
2023-10-18T09:21:04.008Z,4.60
2023-10-18T09:22:04.021Z,4.20
2023-10-18T09:23:04.011Z,4.60
2023-10-18T09:24:03.970Z,5.00
2023-10-18T09:25:04.002Z,3.90
2023-10-18T09:26:03.943Z,4.10
2023-10-18T09:27:03.950Z,5.70
2023-10-18T09:28:03.956Z,4.80
2023-10-18T09:29:03.915Z,4.20
2023-10-18T09:30:03.898Z,4.40
2023-10-18T09:31:03.942Z,4.00
2023-10-18T09:32:04.216Z,5.50
2023-10-18T09:33:03.881Z,5.50
2023-10-18T09:34:03.863Z,5.70
2023-10-18T09:35:03.822Z,4.40
2023-10-18T09:36:03.810Z,4.40
2023-10-18T09:37:03.819Z,4.60
2023-10-18T09:38:03.786Z,4.60
2023-10-18T09:39:03.770Z,4.30
2023-10-18T09:40:03.780Z,4.60
2023-10-18T09:41:03.764Z,4.60
2023-10-18T09:42:03.755Z,4.80
2023-10-18T09:43:03.782Z,4.60
2023-10-18T09:44:03.702Z,5.70
2023-10-18T09:45:03.694Z,6.40
2023-10-18T09:46:03.764Z,5.30
2023-10-18T09:47:03.760Z,5.60
2023-10-18T09:48:03.689Z,4.50
2023-10-18T09:49:03.659Z,4.40
2023-10-18T09:50:03.631Z,4.80
2023-10-18T09:51:03.629Z,4.20
2023-10-18T09:52:03.621Z,4.40
2023-10-18T09:53:03.605Z,4.80
2023-10-18T09:54:03.582Z,4.60
2023-10-18T09:55:03.596Z,5.20
2023-10-18T09:56:03.566Z,5.40
2023-10-18T09:57:03.543Z,5.30
2023-10-18T09:58:03.573Z,5.80
2023-10-18T09:59:05.225Z,5.10
2023-10-18T10:00:03.500Z,5.30
2023-10-18T10:01:03.596Z,4.70
2023-10-18T10:02:03.599Z,5.80
2023-10-18T10:03:03.554Z,4.70
2023-10-18T10:04:03.483Z,4.30
2023-10-18T10:05:03.454Z,4.00
2023-10-18T10:06:03.431Z,4.10
2023-10-18T10:07:03.465Z,5.80
2023-10-18T10:08:03.396Z,3.50
2023-10-18T10:09:03.387Z,4.10
2023-10-18T10:10:03.407Z,5.10
2023-10-18T10:11:03.388Z,4.50
2023-10-18T10:12:03.344Z,4.70
2023-10-18T10:13:03.404Z,4.50
2023-10-18T10:14:03.321Z,4.70
2023-10-18T10:15:03.315Z,4.20
2023-10-18T10:16:03.313Z,4.50
2023-10-18T10:17:03.285Z,5.00
2023-10-18T10:18:03.276Z,5.20
2023-10-18T10:19:03.275Z,5.00
2023-10-18T10:20:03.306Z,4.30
2023-10-18T10:21:03.241Z,4.90
2023-10-18T10:22:03.293Z,4.10
2023-10-18T10:23:03.219Z,4.80
2023-10-18T10:24:03.209Z,4.20
2023-10-18T10:25:08.065Z,6.20
2023-10-18T10:26:10.733Z,5.10
2023-10-18T10:27:03.156Z,5.30
2023-10-18T10:28:03.174Z,5.10
2023-10-18T10:29:03.162Z,4.40
2023-10-18T10:30:03.122Z,4.00
2023-10-18T10:31:03.223Z,4.00
2023-10-18T10:32:03.144Z,4.60
2023-10-18T10:33:03.140Z,6.00
2023-10-18T10:34:03.169Z,4.10
2023-10-18T10:35:03.072Z,4.40
2023-10-18T10:36:03.061Z,4.50
2023-10-18T10:37:03.026Z,5.30
2023-10-18T10:38:03.002Z,4.70
2023-10-18T10:39:03.006Z,3.80
2023-10-18T10:40:03.000Z,6.20
2023-10-18T10:41:02.961Z,4.30
2023-10-18T10:42:02.948Z,4.40
2023-10-18T10:43:02.998Z,6.30
2023-10-18T10:44:02.939Z,5.10
2023-10-18T10:45:02.915Z,3.90
2023-10-18T10:46:02.932Z,4.40
2023-10-18T10:47:02.993Z,5.60
2023-10-18T10:48:02.889Z,4.10
2023-10-18T10:49:02.895Z,4.00
2023-10-18T10:50:02.856Z,5.60
2023-10-18T10:51:02.883Z,4.80
2023-10-18T10:52:02.922Z,5.20
2023-10-18T10:53:02.844Z,4.30
2023-10-18T10:54:02.878Z,5.50
2023-10-18T10:55:02.856Z,5.90
2023-10-18T10:56:02.798Z,4.90
2023-10-18T10:57:02.809Z,4.60
2023-10-18T10:58:02.790Z,4.10
2023-10-18T10:59:02.783Z,4.60
2023-10-18T11:00:02.739Z,5.20
2023-10-18T11:01:02.804Z,4.10
2023-10-18T11:02:02.763Z,3.90
2023-10-18T11:03:02.746Z,3.70
2023-10-18T11:04:02.727Z,3.50
2023-10-18T11:05:02.689Z,4.20
2023-10-18T11:06:02.711Z,3.70
2023-10-18T11:07:03.036Z,4.00
2023-10-18T11:08:02.651Z,3.60
2023-10-18T11:09:02.625Z,4.40
2023-10-18T11:10:02.612Z,4.10
2023-10-18T11:11:02.577Z,5.30
2023-10-18T11:12:02.569Z,3.40
2023-10-18T11:13:02.615Z,4.20
2023-10-18T11:14:02.541Z,4.20
2023-10-18T11:15:02.566Z,5.40
2023-10-18T11:16:02.660Z,3.80
2023-10-18T11:17:02.578Z,3.90
2023-10-18T11:18:02.546Z,3.80
2023-10-18T11:19:02.504Z,3.30
2023-10-18T11:20:02.471Z,3.80
2023-10-18T11:21:02.479Z,4.50
2023-10-18T11:22:02.496Z,3.80
2023-10-18T11:23:02.456Z,4.60
2023-10-18T11:24:02.546Z,4.00
2023-10-18T11:25:02.457Z,4.30
2023-10-18T11:26:02.398Z,4.10
2023-10-18T11:27:02.406Z,4.40
2023-10-18T11:28:02.413Z,4.30
2023-10-18T11:29:02.408Z,5.20
2023-10-18T11:30:02.347Z,4.50
2023-10-18T11:31:02.458Z,5.20
2023-10-18T11:32:02.507Z,4.60
2023-10-18T11:33:02.457Z,5.30
2023-10-18T11:34:02.320Z,3.50
2023-10-18T11:35:02.301Z,4.90
2023-10-18T11:36:02.266Z,4.10
2023-10-18T11:37:02.300Z,4.10
2023-10-18T11:38:02.244Z,3.50
2023-10-18T11:39:02.227Z,3.20
2023-10-18T11:40:02.383Z,5.40
2023-10-18T11:41:02.214Z,6.80
2023-10-18T11:42:02.216Z,4.00
2023-10-18T11:43:02.196Z,3.60
2023-10-18T11:44:02.159Z,5.10
2023-10-18T11:45:02.173Z,4.50
2023-10-18T11:46:02.221Z,4.60
2023-10-18T11:47:02.273Z,4.00
2023-10-18T11:48:02.167Z,4.40
2023-10-18T11:49:02.136Z,4.90
2023-10-18T11:50:02.092Z,5.70
2023-10-18T11:51:02.089Z,5.20
2023-10-18T11:52:02.108Z,4.10
2023-10-18T11:53:02.045Z,6.80
2023-10-18T11:54:02.033Z,3.40
2023-10-18T11:55:02.115Z,4.80
2023-10-18T11:56:05.947Z,4.70
2023-10-18T11:57:02.005Z,5.60
2023-10-18T11:58:01.979Z,4.00
2023-10-18T11:59:02.056Z,4.70
2023-10-18T12:00:01.968Z,3.50
2023-10-18T12:01:02.049Z,5.00
2023-10-18T12:02:02.008Z,4.10
2023-10-18T12:03:02.023Z,4.00
2023-10-18T12:04:02.054Z,4.70
2023-10-18T12:05:02.109Z,4.50
2023-10-18T12:06:01.888Z,4.60
2023-10-18T12:07:01.911Z,3.60
2023-10-18T12:08:01.847Z,3.10
2023-10-18T12:09:01.839Z,3.90
2023-10-18T12:10:01.951Z,4.80
2023-10-18T12:11:01.812Z,3.00
2023-10-18T12:12:01.821Z,5.20
2023-10-18T12:13:01.786Z,4.40
2023-10-18T12:14:01.780Z,3.70
2023-10-18T12:15:01.772Z,4.80
2023-10-18T12:16:01.997Z,4.00
2023-10-18T12:17:01.957Z,4.30
2023-10-18T12:18:01.733Z,3.60
2023-10-18T12:19:01.757Z,4.60
2023-10-18T12:20:01.720Z,3.40
2023-10-18T12:21:01.674Z,4.80
2023-10-18T12:22:01.694Z,4.50
2023-10-18T12:23:01.651Z,6.20
2023-10-18T12:24:01.654Z,4.30
2023-10-18T12:25:01.641Z,4.40
2023-10-18T12:26:01.614Z,5.10
2023-10-18T12:27:01.698Z,4.60
2023-10-18T12:28:01.765Z,4.70
2023-10-18T12:29:01.598Z,4.80
2023-10-18T12:30:01.563Z,4.30
2023-10-18T12:31:01.625Z,3.70
2023-10-18T12:32:01.794Z,5.10
2023-10-18T12:33:01.561Z,6.40
2023-10-18T12:34:01.564Z,6.30
2023-10-18T12:35:01.490Z,3.70
2023-10-18T12:36:01.472Z,5.60
2023-10-18T12:37:01.583Z,5.70
2023-10-18T12:38:01.461Z,4.30
2023-10-18T12:39:01.467Z,4.10
2023-10-18T12:40:01.478Z,4.10
2023-10-18T12:41:01.417Z,4.50
2023-10-18T12:42:01.411Z,3.20
2023-10-18T12:43:02.091Z,4.30
2023-10-18T12:44:01.445Z,4.40
2023-10-18T12:45:01.418Z,3.90
2023-10-18T12:46:01.456Z,4.70
2023-10-18T12:47:01.420Z,4.20
2023-10-18T12:48:01.384Z,4.90
2023-10-18T12:49:01.345Z,4.20
2023-10-18T12:50:01.296Z,5.00
2023-10-18T12:51:01.281Z,4.40
2023-10-18T12:52:01.666Z,5.30
2023-10-18T12:53:01.338Z,4.40
2023-10-18T12:54:01.266Z,5.60
2023-10-18T12:55:01.237Z,4.40
2023-10-18T12:56:01.213Z,5.30
2023-10-18T12:57:01.205Z,3.60
2023-10-18T12:58:01.261Z,4.10
2023-10-18T12:59:01.232Z,5.10
2023-10-18T13:00:01.329Z,3.00
2023-10-18T13:01:01.170Z,3.80
2023-10-18T13:02:01.248Z,3.80
2023-10-18T13:03:01.350Z,4.10
2023-10-18T13:04:01.348Z,3.80
2023-10-18T13:05:01.242Z,3.80
2023-10-18T13:06:01.124Z,4.10
2023-10-18T13:07:01.070Z,3.30
2023-10-18T13:08:01.123Z,3.70
2023-10-18T13:09:01.041Z,4.90